KTBN/TBN METAR and TAF weather

Enter ICAO airport designator
Station Type Date Time Source
KTBN METAR 2021/05/14 06:56 UTC NOAA

KTBN 140656Z AUTO 13005KT 10SM CLR 09/02 A3031 RMK AO2 SLP265 T00850019


Station Type Date Time Source
KTBN Decoded METAR 2021/05/14 06:56 UTC NOAA

Fort Leonard Wood, MO, United States (KTBN) 37-44N 092-08W
May 14, 2021 - 02:56 AM EDT / 2021.05.14 0656 UTC
Wind: from the SE (130 degrees) at 6 MPH (5 KT):0
Visibility: 10 mile(s):0
Sky conditions: clear
Temperature: 47.3 F (8.5 C)
Dew Point: 35.4 F (1.9 C)
Relative Humidity: 63%
Pressure (altimeter): 30.31 in. Hg (1026 hPa)
ob: KTBN 140656Z AUTO 13005KT 10SM CLR 09/02 A3031 RMK AO2 SLP265 T00850019
cycle: 7

Station Type Date Time Source
KTBN TAF UTC NOAA

Error!

Example: see airport list